sensor_id;sensor_type;location;lat;lon;timestamp;P1;durP1;ratioP1;P2;durP2;ratioP2
79646;SDS011;69119;41.718;21.786;2024-03-25T00:02:02;3.63;;;0.82;;
79646;SDS011;69119;41.718;21.786;2024-03-25T00:04:28;3.17;;;1.00;;
79646;SDS011;69119;41.718;21.786;2024-03-25T00:06:54;2.22;;;0.88;;
79646;SDS011;69119;41.718;21.786;2024-03-25T00:09:22;2.67;;;0.68;;
79646;SDS011;69119;41.718;21.786;2024-03-25T00:11:48;2.83;;;1.02;;
79646;SDS011;69119;41.718;21.786;2024-03-25T00:14:14;2.55;;;0.80;;
79646;SDS011;69119;41.718;21.786;2024-03-25T00:16:40;2.55;;;0.77;;
79646;SDS011;69119;41.718;21.786;2024-03-25T00:19:06;3.70;;;1.08;;
79646;SDS011;69119;41.718;21.786;2024-03-25T00:21:32;3.83;;;1.35;;
79646;SDS011;69119;41.718;21.786;2024-03-25T00:23:58;4.13;;;1.52;;
79646;SDS011;69119;41.718;21.786;2024-03-25T00:26:25;2.92;;;0.80;;
79646;SDS011;69119;41.718;21.786;2024-03-25T00:28:52;3.88;;;1.20;;
79646;SDS011;69119;41.718;21.786;2024-03-25T00:31:18;2.28;;;1.10;;
79646;SDS011;69119;41.718;21.786;2024-03-25T00:33:44;2.95;;;1.05;;
79646;SDS011;69119;41.718;21.786;2024-03-25T00:36:10;15.63;;;4.63;;
79646;SDS011;69119;41.718;21.786;2024-03-25T00:38:37;3.00;;;1.00;;
79646;SDS011;69119;41.718;21.786;2024-03-25T00:41:03;21.23;;;7.35;;
79646;SDS011;69119;41.718;21.786;2024-03-25T00:43:29;15.00;;;4.85;;
79646;SDS011;69119;41.718;21.786;2024-03-25T00:45:55;4.03;;;1.13;;
79646;SDS011;69119;41.718;21.786;2024-03-25T00:48:22;4.78;;;1.08;;
79646;SDS011;69119;41.718;21.786;2024-03-25T00:50:48;4.40;;;1.13;;
79646;SDS011;69119;41.718;21.786;2024-03-25T00:53:14;3.88;;;1.23;;
79646;SDS011;69119;41.718;21.786;2024-03-25T00:55:40;2.00;;;0.80;;
79646;SDS011;69119;41.718;21.786;2024-03-25T00:58:06;3.03;;;0.73;;
79646;SDS011;69119;41.718;21.786;2024-03-25T01:00:32;2.40;;;1.30;;
79646;SDS011;69119;41.718;21.786;2024-03-25T01:02:58;2.55;;;0.75;;
79646;SDS011;69119;41.718;21.786;2024-03-25T01:05:24;3.38;;;1.75;;
79646;SDS011;69119;41.718;21.786;2024-03-25T01:07:50;4.05;;;1.25;;
79646;SDS011;69119;41.718;21.786;2024-03-25T01:10:16;3.03;;;1.05;;
79646;SDS011;69119;41.718;21.786;2024-03-25T01:12:42;1.90;;;0.90;;
79646;SDS011;69119;41.718;21.786;2024-03-25T01:15:08;2.40;;;1.30;;
79646;SDS011;69119;41.718;21.786;2024-03-25T01:17:37;2.45;;;0.70;;
79646;SDS011;69119;41.718;21.786;2024-03-25T01:20:03;2.03;;;0.75;;
79646;SDS011;69119;41.718;21.786;2024-03-25T01:22:30;2.67;;;1.10;;
79646;SDS011;69119;41.718;21.786;2024-03-25T01:24:57;2.15;;;0.70;;
79646;SDS011;69119;41.718;21.786;2024-03-25T01:27:23;2.25;;;0.55;;
79646;SDS011;69119;41.718;21.786;2024-03-25T01:29:49;2.72;;;1.05;;
79646;SDS011;69119;41.718;21.786;2024-03-25T01:32:15;2.90;;;1.38;;
79646;SDS011;69119;41.718;21.786;2024-03-25T01:34:41;2.83;;;0.85;;
79646;SDS011;69119;41.718;21.786;2024-03-25T01:37:07;3.05;;;1.00;;
79646;SDS011;69119;41.718;21.786;2024-03-25T01:39:33;2.92;;;0.77;;
79646;SDS011;69119;41.718;21.786;2024-03-25T01:41:59;2.13;;;0.57;;
79646;SDS011;69119;41.718;21.786;2024-03-25T01:44:25;9.43;;;3.35;;
79646;SDS011;69119;41.718;21.786;2024-03-25T01:46:51;8.40;;;3.67;;
79646;SDS011;69119;41.718;21.786;2024-03-25T01:49:18;6.03;;;2.80;;
79646;SDS011;69119;41.718;21.786;2024-03-25T01:51:44;13.15;;;3.72;;
79646;SDS011;69119;41.718;21.786;2024-03-25T01:54:10;11.50;;;3.90;;
79646;SDS011;69119;41.718;21.786;2024-03-25T01:56:39;8.27;;;1.75;;
79646;SDS011;69119;41.718;21.786;2024-03-25T01:59:07;28.58;;;8.05;;
79646;SDS011;69119;41.718;21.786;2024-03-25T02:01:33;21.05;;;7.13;;
79646;SDS011;69119;41.718;21.786;2024-03-25T02:03:59;2.45;;;1.15;;
79646;SDS011;69119;41.718;21.786;2024-03-25T02:06:26;3.33;;;1.08;;
79646;SDS011;69119;41.718;21.786;2024-03-25T02:08:53;4.68;;;1.52;;
79646;SDS011;69119;41.718;21.786;2024-03-25T02:11:20;3.65;;;1.13;;
79646;SDS011;69119;41.718;21.786;2024-03-25T02:13:46;31.48;;;11.80;;
79646;SDS011;69119;41.718;21.786;2024-03-25T02:16:12;3.67;;;0.98;;
79646;SDS011;69119;41.718;21.786;2024-03-25T02:18:39;4.22;;;1.45;;
79646;SDS011;69119;41.718;21.786;2024-03-25T02:21:05;3.47;;;0.88;;
79646;SDS011;69119;41.718;21.786;2024-03-25T02:23:31;3.95;;;1.30;;
79646;SDS011;69119;41.718;21.786;2024-03-25T02:25:59;5.53;;;1.95;;
79646;SDS011;69119;41.718;21.786;2024-03-25T02:28:25;3.88;;;1.08;;
79646;SDS011;69119;41.718;21.786;2024-03-25T02:30:51;4.68;;;1.95;;
79646;SDS011;69119;41.718;21.786;2024-03-25T02:33:17;2.72;;;1.02;;
79646;SDS011;69119;41.718;21.786;2024-03-25T02:35:43;2.53;;;0.55;;
79646;SDS011;69119;41.718;21.786;2024-03-25T02:38:10;2.80;;;1.13;;
79646;SDS011;69119;41.718;21.786;2024-03-25T02:40:37;3.92;;;0.88;;
79646;SDS011;69119;41.718;21.786;2024-03-25T02:43:03;3.90;;;1.27;;
79646;SDS011;69119;41.718;21.786;2024-03-25T02:45:31;7.13;;;2.75;;
79646;SDS011;69119;41.718;21.786;2024-03-25T02:47:57;3.35;;;1.15;;
79646;SDS011;69119;41.718;21.786;2024-03-25T02:50:23;3.38;;;1.38;;
79646;SDS011;69119;41.718;21.786;2024-03-25T02:52:49;3.53;;;1.42;;
79646;SDS011;69119;41.718;21.786;2024-03-25T02:55:16;3.28;;;1.17;;
79646;SDS011;69119;41.718;21.786;2024-03-25T02:57:42;7.75;;;4.25;;
79646;SDS011;69119;41.718;21.786;2024-03-25T03:00:08;12.65;;;7.70;;
79646;SDS011;69119;41.718;21.786;2024-03-25T03:02:34;17.90;;;13.25;;
79646;SDS011;69119;41.718;21.786;2024-03-25T03:05:00;21.98;;;16.17;;
79646;SDS011;69119;41.718;21.786;2024-03-25T03:07:28;18.48;;;11.63;;
79646;SDS011;69119;41.718;21.786;2024-03-25T03:09:54;10.50;;;6.60;;
79646;SDS011;69119;41.718;21.786;2024-03-25T03:12:21;11.38;;;6.90;;
79646;SDS011;69119;41.718;21.786;2024-03-25T03:14:47;2.65;;;0.98;;
79646;SDS011;69119;41.718;21.786;2024-03-25T03:17:13;3.38;;;1.08;;
79646;SDS011;69119;41.718;21.786;2024-03-25T03:19:39;3.40;;;1.25;;
79646;SDS011;69119;41.718;21.786;2024-03-25T03:22:05;3.28;;;0.85;;
79646;SDS011;69119;41.718;21.786;2024-03-25T03:24:31;3.13;;;1.15;;
79646;SDS011;69119;41.718;21.786;2024-03-25T03:26:57;3.60;;;1.13;;
79646;SDS011;69119;41.718;21.786;2024-03-25T03:29:23;3.13;;;1.15;;
79646;SDS011;69119;41.718;21.786;2024-03-25T03:31:49;3.05;;;1.20;;
79646;SDS011;69119;41.718;21.786;2024-03-25T03:34:15;3.42;;;1.27;;
79646;SDS011;69119;41.718;21.786;2024-03-25T03:36:41;2.42;;;1.00;;
79646;SDS011;69119;41.718;21.786;2024-03-25T03:39:08;4.05;;;1.35;;
79646;SDS011;69119;41.718;21.786;2024-03-25T03:41:34;4.22;;;1.73;;
79646;SDS011;69119;41.718;21.786;2024-03-25T03:44:01;4.30;;;1.17;;
79646;SDS011;69119;41.718;21.786;2024-03-25T03:46:27;3.00;;;1.13;;
79646;SDS011;69119;41.718;21.786;2024-03-25T03:48:53;3.60;;;1.63;;
79646;SDS011;69119;41.718;21.786;2024-03-25T03:51:19;4.65;;;1.42;;
79646;SDS011;69119;41.718;21.786;2024-03-25T03:53:45;4.28;;;1.48;;
79646;SDS011;69119;41.718;21.786;2024-03-25T03:56:11;3.75;;;1.38;;
79646;SDS011;69119;41.718;21.786;2024-03-25T03:58:37;4.35;;;1.30;;
79646;SDS011;69119;41.718;21.786;2024-03-25T04:01:03;14.75;;;5.55;;
79646;SDS011;69119;41.718;21.786;2024-03-25T04:03:30;3.97;;;1.73;;
79646;SDS011;69119;41.718;21.786;2024-03-25T04:05:56;4.88;;;1.48;;
79646;SDS011;69119;41.718;21.786;2024-03-25T04:08:22;7.57;;;2.65;;
79646;SDS011;69119;41.718;21.786;2024-03-25T04:10:48;4.68;;;1.58;;
79646;SDS011;69119;41.718;21.786;2024-03-25T04:13:14;4.72;;;1.33;;
79646;SDS011;69119;41.718;21.786;2024-03-25T04:15:40;15.10;;;5.97;;
79646;SDS011;69119;41.718;21.786;2024-03-25T04:18:07;6.15;;;1.45;;
79646;SDS011;69119;41.718;21.786;2024-03-25T04:22:59;6.60;;;2.90;;
79646;SDS011;69119;41.718;21.786;2024-03-25T04:25:25;6.22;;;2.97;;
79646;SDS011;69119;41.718;21.786;2024-03-25T04:27:52;6.65;;;3.40;;
79646;SDS011;69119;41.718;21.786;2024-03-25T04:30:18;8.93;;;4.70;;
79646;SDS011;69119;41.718;21.786;2024-03-25T04:32:44;6.00;;;3.08;;
79646;SDS011;69119;41.718;21.786;2024-03-25T04:35:10;4.70;;;1.55;;
79646;SDS011;69119;41.718;21.786;2024-03-25T04:37:36;5.68;;;2.00;;
79646;SDS011;69119;41.718;21.786;2024-03-25T04:40:02;4.20;;;1.48;;
79646;SDS011;69119;41.718;21.786;2024-03-25T04:42:28;9.75;;;3.05;;
79646;SDS011;69119;41.718;21.786;2024-03-25T04:44:55;10.38;;;4.43;;
79646;SDS011;69119;41.718;21.786;2024-03-25T04:47:21;5.07;;;1.50;;
79646;SDS011;69119;41.718;21.786;2024-03-25T04:49:47;12.63;;;6.15;;
79646;SDS011;69119;41.718;21.786;2024-03-25T04:52:13;10.07;;;4.25;;
79646;SDS011;69119;41.718;21.786;2024-03-25T04:54:43;9.63;;;3.85;;
79646;SDS011;69119;41.718;21.786;2024-03-25T04:57:09;8.43;;;4.22;;
79646;SDS011;69119;41.718;21.786;2024-03-25T04:59:35;5.35;;;2.53;;
79646;SDS011;69119;41.718;21.786;2024-03-25T05:02:01;5.25;;;2.42;;
79646;SDS011;69119;41.718;21.786;2024-03-25T05:04:27;5.93;;;2.53;;
79646;SDS011;69119;41.718;21.786;2024-03-25T05:09:20;7.05;;;2.63;;
79646;SDS011;69119;41.718;21.786;2024-03-25T05:11:46;15.48;;;4.97;;
79646;SDS011;69119;41.718;21.786;2024-03-25T05:14:12;6.03;;;2.45;;
79646;SDS011;69119;41.718;21.786;2024-03-25T05:16:38;6.93;;;3.05;;
79646;SDS011;69119;41.718;21.786;2024-03-25T05:19:04;5.53;;;2.25;;
79646;SDS011;69119;41.718;21.786;2024-03-25T05:21:31;5.53;;;2.90;;
79646;SDS011;69119;41.718;21.786;2024-03-25T05:23:57;6.03;;;3.03;;
79646;SDS011;69119;41.718;21.786;2024-03-25T05:26:23;6.30;;;3.70;;
79646;SDS011;69119;41.718;21.786;2024-03-25T05:28:55;5.10;;;1.88;;
79646;SDS011;69119;41.718;21.786;2024-03-25T05:31:22;4.28;;;1.30;;
79646;SDS011;69119;41.718;21.786;2024-03-25T05:33:48;5.38;;;2.40;;
79646;SDS011;69119;41.718;21.786;2024-03-25T05:36:14;4.97;;;2.17;;
79646;SDS011;69119;41.718;21.786;2024-03-25T05:38:40;5.10;;;2.25;;
79646;SDS011;69119;41.718;21.786;2024-03-25T05:41:10;4.97;;;2.10;;
79646;SDS011;69119;41.718;21.786;2024-03-25T05:43:36;5.63;;;2.85;;
79646;SDS011;69119;41.718;21.786;2024-03-25T05:46:02;8.80;;;4.07;;
79646;SDS011;69119;41.718;21.786;2024-03-25T05:48:29;9.95;;;5.05;;
79646;SDS011;69119;41.718;21.786;2024-03-25T05:51:02;12.38;;;7.13;;
79646;SDS011;69119;41.718;21.786;2024-03-25T05:53:30;13.00;;;6.70;;
79646;SDS011;69119;41.718;21.786;2024-03-25T05:55:57;9.75;;;4.88;;
79646;SDS011;69119;41.718;21.786;2024-03-25T05:58:26;8.18;;;4.32;;
79646;SDS011;69119;41.718;21.786;2024-03-25T06:00:52;5.72;;;2.50;;
79646;SDS011;69119;41.718;21.786;2024-03-25T06:03:18;8.23;;;4.63;;
79646;SDS011;69119;41.718;21.786;2024-03-25T06:05:45;9.05;;;4.53;;
79646;SDS011;69119;41.718;21.786;2024-03-25T06:08:11;9.30;;;4.38;;
79646;SDS011;69119;41.718;21.786;2024-03-25T06:10:46;7.72;;;4.35;;
79646;SDS011;69119;41.718;21.786;2024-03-25T06:13:12;7.07;;;3.03;;
79646;SDS011;69119;41.718;21.786;2024-03-25T06:15:38;8.15;;;3.35;;
79646;SDS011;69119;41.718;21.786;2024-03-25T06:18:04;5.95;;;2.63;;
79646;SDS011;69119;41.718;21.786;2024-03-25T06:20:31;6.95;;;3.75;;
79646;SDS011;69119;41.718;21.786;2024-03-25T06:22:57;6.35;;;2.28;;
79646;SDS011;69119;41.718;21.786;2024-03-25T06:25:23;7.75;;;3.53;;
79646;SDS011;69119;41.718;21.786;2024-03-25T06:27:49;7.22;;;2.72;;
79646;SDS011;69119;41.718;21.786;2024-03-25T06:30:15;8.88;;;4.25;;
79646;SDS011;69119;41.718;21.786;2024-03-25T06:33:00;7.38;;;3.90;;
79646;SDS011;69119;41.718;21.786;2024-03-25T06:35:44;8.77;;;4.20;;
79646;SDS011;69119;41.718;21.786;2024-03-25T06:38:11;9.45;;;4.07;;
79646;SDS011;69119;41.718;21.786;2024-03-25T06:40:37;9.52;;;3.90;;
79646;SDS011;69119;41.718;21.786;2024-03-25T06:43:03;9.57;;;3.78;;
79646;SDS011;69119;41.718;21.786;2024-03-25T06:45:29;10.15;;;5.25;;
79646;SDS011;69119;41.718;21.786;2024-03-25T06:47:56;8.68;;;4.50;;
79646;SDS011;69119;41.718;21.786;2024-03-25T06:50:23;7.60;;;3.40;;
79646;SDS011;69119;41.718;21.786;2024-03-25T06:52:49;10.05;;;4.65;;
79646;SDS011;69119;41.718;21.786;2024-03-25T06:55:15;7.50;;;3.38;;
79646;SDS011;69119;41.718;21.786;2024-03-25T06:57:42;8.88;;;4.85;;
79646;SDS011;69119;41.718;21.786;2024-03-25T07:00:08;10.65;;;5.07;;
79646;SDS011;69119;41.718;21.786;2024-03-25T07:02:38;8.70;;;4.75;;
79646;SDS011;69119;41.718;21.786;2024-03-25T07:05:04;6.55;;;2.90;;
79646;SDS011;69119;41.718;21.786;2024-03-25T07:07:30;8.65;;;3.97;;
79646;SDS011;69119;41.718;21.786;2024-03-25T07:09:56;9.15;;;4.70;;
79646;SDS011;69119;41.718;21.786;2024-03-25T07:12:22;8.38;;;4.00;;
79646;SDS011;69119;41.718;21.786;2024-03-25T07:14:48;8.40;;;4.70;;
79646;SDS011;69119;41.718;21.786;2024-03-25T07:17:14;8.20;;;3.78;;
79646;SDS011;69119;41.718;21.786;2024-03-25T07:19:41;10.98;;;4.75;;
79646;SDS011;69119;41.718;21.786;2024-03-25T07:24:33;11.38;;;4.57;;
79646;SDS011;69119;41.718;21.786;2024-03-25T07:26:59;8.27;;;3.28;;
79646;SDS011;69119;41.718;21.786;2024-03-25T07:29:25;11.02;;;4.40;;
79646;SDS011;69119;41.718;21.786;2024-03-25T07:31:51;14.75;;;6.68;;
79646;SDS011;69119;41.718;21.786;2024-03-25T07:34:18;8.60;;;4.20;;
79646;SDS011;69119;41.718;21.786;2024-03-25T07:36:44;7.43;;;3.92;;
79646;SDS011;69119;41.718;21.786;2024-03-25T07:39:10;7.70;;;3.53;;
79646;SDS011;69119;41.718;21.786;2024-03-25T07:41:37;11.07;;;5.00;;
79646;SDS011;69119;41.718;21.786;2024-03-25T07:44:03;9.30;;;3.97;;
79646;SDS011;69119;41.718;21.786;2024-03-25T07:46:29;6.60;;;2.97;;
79646;SDS011;69119;41.718;21.786;2024-03-25T07:48:55;8.82;;;4.13;;
79646;SDS011;69119;41.718;21.786;2024-03-25T07:51:22;8.38;;;3.20;;
79646;SDS011;69119;41.718;21.786;2024-03-25T07:53:48;6.95;;;3.38;;
79646;SDS011;69119;41.718;21.786;2024-03-25T07:56:16;6.68;;;2.78;;
79646;SDS011;69119;41.718;21.786;2024-03-25T07:58:43;7.68;;;3.17;;
79646;SDS011;69119;41.718;21.786;2024-03-25T08:01:09;6.97;;;3.13;;
79646;SDS011;69119;41.718;21.786;2024-03-25T08:03:35;10.25;;;4.20;;
79646;SDS011;69119;41.718;21.786;2024-03-25T08:06:03;8.52;;;4.78;;
79646;SDS011;69119;41.718;21.786;2024-03-25T08:08:29;9.70;;;4.22;;
79646;SDS011;69119;41.718;21.786;2024-03-25T08:10:56;8.52;;;3.72;;
79646;SDS011;69119;41.718;21.786;2024-03-25T08:13:22;8.32;;;3.58;;
79646;SDS011;69119;41.718;21.786;2024-03-25T08:15:48;7.38;;;3.17;;
79646;SDS011;69119;41.718;21.786;2024-03-25T08:18:14;8.15;;;4.03;;
79646;SDS011;69119;41.718;21.786;2024-03-25T08:20:40;8.60;;;3.20;;
79646;SDS011;69119;41.718;21.786;2024-03-25T08:23:06;6.45;;;2.80;;
79646;SDS011;69119;41.718;21.786;2024-03-25T08:25:32;8.32;;;4.07;;
79646;SDS011;69119;41.718;21.786;2024-03-25T08:27:59;6.65;;;3.20;;
79646;SDS011;69119;41.718;21.786;2024-03-25T08:30:25;7.57;;;3.40;;
79646;SDS011;69119;41.718;21.786;2024-03-25T08:32:51;6.63;;;3.00;;
79646;SDS011;69119;41.718;21.786;2024-03-25T08:35:17;6.32;;;2.97;;
79646;SDS011;69119;41.718;21.786;2024-03-25T08:37:43;7.25;;;2.95;;
79646;SDS011;69119;41.718;21.786;2024-03-25T08:40:09;9.68;;;4.38;;
79646;SDS011;69119;41.718;21.786;2024-03-25T08:42:36;6.07;;;3.45;;
79646;SDS011;69119;41.718;21.786;2024-03-25T08:45:02;6.82;;;3.10;;
79646;SDS011;69119;41.718;21.786;2024-03-25T08:47:28;7.65;;;3.35;;
79646;SDS011;69119;41.718;21.786;2024-03-25T08:49:54;8.00;;;4.28;;
79646;SDS011;69119;41.718;21.786;2024-03-25T08:52:20;5.93;;;2.67;;
79646;SDS011;69119;41.718;21.786;2024-03-25T08:54:47;6.35;;;3.47;;
79646;SDS011;69119;41.718;21.786;2024-03-25T08:57:13;7.82;;;3.85;;
79646;SDS011;69119;41.718;21.786;2024-03-25T08:59:39;6.75;;;3.13;;
79646;SDS011;69119;41.718;21.786;2024-03-25T09:04:32;7.75;;;3.88;;
79646;SDS011;69119;41.718;21.786;2024-03-25T09:06:59;7.93;;;3.40;;
79646;SDS011;69119;41.718;21.786;2024-03-25T09:09:25;7.32;;;4.03;;
79646;SDS011;69119;41.718;21.786;2024-03-25T09:12:10;6.70;;;3.08;;
79646;SDS011;69119;41.718;21.786;2024-03-25T09:14:36;5.50;;;2.72;;
79646;SDS011;69119;41.718;21.786;2024-03-25T09:17:03;7.75;;;3.47;;
79646;SDS011;69119;41.718;21.786;2024-03-25T09:19:31;4.88;;;2.10;;
79646;SDS011;69119;41.718;21.786;2024-03-25T09:21:57;6.88;;;2.78;;
79646;SDS011;69119;41.718;21.786;2024-03-25T09:24:25;6.90;;;3.25;;
79646;SDS011;69119;41.718;21.786;2024-03-25T09:29:17;6.85;;;3.13;;
79646;SDS011;69119;41.718;21.786;2024-03-25T09:31:43;7.05;;;2.70;;
79646;SDS011;69119;41.718;21.786;2024-03-25T09:34:09;5.32;;;2.10;;
79646;SDS011;69119;41.718;21.786;2024-03-25T09:36:35;6.05;;;3.08;;
79646;SDS011;69119;41.718;21.786;2024-03-25T09:39:02;7.25;;;3.15;;
79646;SDS011;69119;41.718;21.786;2024-03-25T09:41:40;7.03;;;2.40;;
79646;SDS011;69119;41.718;21.786;2024-03-25T09:44:08;6.25;;;3.00;;
79646;SDS011;69119;41.718;21.786;2024-03-25T09:46:35;5.50;;;2.92;;
79646;SDS011;69119;41.718;21.786;2024-03-25T09:49:02;6.45;;;2.50;;
79646;SDS011;69119;41.718;21.786;2024-03-25T09:51:30;5.72;;;2.47;;
79646;SDS011;69119;41.718;21.786;2024-03-25T09:53:57;4.93;;;2.38;;
79646;SDS011;69119;41.718;21.786;2024-03-25T09:56:23;5.97;;;3.00;;
79646;SDS011;69119;41.718;21.786;2024-03-25T09:58:49;5.40;;;2.35;;
79646;SDS011;69119;41.718;21.786;2024-03-25T10:01:16;7.15;;;2.72;;
79646;SDS011;69119;41.718;21.786;2024-03-25T10:03:42;5.80;;;2.90;;
79646;SDS011;69119;41.718;21.786;2024-03-25T10:06:08;6.03;;;2.13;;
79646;SDS011;69119;41.718;21.786;2024-03-25T10:08:35;4.47;;;1.63;;
79646;SDS011;69119;41.718;21.786;2024-03-25T10:11:01;4.90;;;1.92;;
79646;SDS011;69119;41.718;21.786;2024-03-25T10:13:27;5.47;;;2.25;;
79646;SDS011;69119;41.718;21.786;2024-03-25T10:15:54;6.78;;;1.80;;
79646;SDS011;69119;41.718;21.786;2024-03-25T10:18:21;5.55;;;2.03;;
79646;SDS011;69119;41.718;21.786;2024-03-25T10:20:51;4.50;;;2.05;;
79646;SDS011;69119;41.718;21.786;2024-03-25T10:23:20;5.10;;;1.90;;
79646;SDS011;69119;41.718;21.786;2024-03-25T10:25:47;11.52;;;5.00;;
79646;SDS011;69119;41.718;21.786;2024-03-25T10:28:14;13.25;;;6.32;;
79646;SDS011;69119;41.718;21.786;2024-03-25T10:30:40;11.55;;;4.80;;
79646;SDS011;69119;41.718;21.786;2024-03-25T10:33:07;9.10;;;3.25;;
79646;SDS011;69119;41.718;21.786;2024-03-25T10:35:34;7.97;;;3.72;;
79646;SDS011;69119;41.718;21.786;2024-03-25T10:38:01;6.95;;;2.95;;
79646;SDS011;69119;41.718;21.786;2024-03-25T10:40:38;6.10;;;2.55;;
79646;SDS011;69119;41.718;21.786;2024-03-25T10:43:05;6.22;;;1.95;;
79646;SDS011;69119;41.718;21.786;2024-03-25T10:45:33;7.28;;;2.35;;
79646;SDS011;69119;41.718;21.786;2024-03-25T10:48:28;9.32;;;4.18;;
79646;SDS011;69119;41.718;21.786;2024-03-25T10:50:56;11.18;;;4.40;;
79646;SDS011;69119;41.718;21.786;2024-03-25T10:53:24;10.68;;;5.18;;
79646;SDS011;69119;41.718;21.786;2024-03-25T10:55:53;6.15;;;2.83;;
79646;SDS011;69119;41.718;21.786;2024-03-25T10:58:20;7.88;;;2.78;;
79646;SDS011;69119;41.718;21.786;2024-03-25T11:00:48;5.70;;;2.63;;
79646;SDS011;69119;41.718;21.786;2024-03-25T11:03:14;6.43;;;2.40;;
79646;SDS011;69119;41.718;21.786;2024-03-25T11:05:40;4.30;;;1.77;;
79646;SDS011;69119;41.718;21.786;2024-03-25T11:08:10;4.60;;;1.85;;
79646;SDS011;69119;41.718;21.786;2024-03-25T11:10:40;5.18;;;1.35;;
79646;SDS011;69119;41.718;21.786;2024-03-25T11:13:18;6.65;;;2.40;;
79646;SDS011;69119;41.718;21.786;2024-03-25T11:15:45;5.57;;;2.30;;
79646;SDS011;69119;41.718;21.786;2024-03-25T11:18:15;5.65;;;2.65;;
79646;SDS011;69119;41.718;21.786;2024-03-25T11:20:42;5.80;;;2.10;;
79646;SDS011;69119;41.718;21.786;2024-03-25T11:23:11;6.30;;;2.47;;
79646;SDS011;69119;41.718;21.786;2024-03-25T11:25:38;7.03;;;2.70;;
79646;SDS011;69119;41.718;21.786;2024-03-25T11:28:05;6.70;;;2.55;;
79646;SDS011;69119;41.718;21.786;2024-03-25T11:30:31;6.20;;;2.30;;
79646;SDS011;69119;41.718;21.786;2024-03-25T11:33:00;9.13;;;2.38;;
79646;SDS011;69119;41.718;21.786;2024-03-25T11:35:26;5.90;;;1.80;;
79646;SDS011;69119;41.718;21.786;2024-03-25T11:37:52;7.15;;;2.78;;
79646;SDS011;69119;41.718;21.786;2024-03-25T11:40:19;5.18;;;1.80;;
79646;SDS011;69119;41.718;21.786;2024-03-25T11:42:45;5.13;;;1.92;;
79646;SDS011;69119;41.718;21.786;2024-03-25T11:45:15;4.57;;;2.05;;
79646;SDS011;69119;41.718;21.786;2024-03-25T11:47:42;5.07;;;2.00;;
79646;SDS011;69119;41.718;21.786;2024-03-25T11:50:09;6.13;;;2.17;;
79646;SDS011;69119;41.718;21.786;2024-03-25T11:52:35;6.03;;;2.05;;
79646;SDS011;69119;41.718;21.786;2024-03-25T11:55:01;4.50;;;1.52;;
79646;SDS011;69119;41.718;21.786;2024-03-25T11:57:28;5.30;;;1.95;;
79646;SDS011;69119;41.718;21.786;2024-03-25T12:02:20;4.93;;;1.75;;
79646;SDS011;69119;41.718;21.786;2024-03-25T12:04:47;8.75;;;3.15;;
79646;SDS011;69119;41.718;21.786;2024-03-25T12:07:13;5.93;;;2.70;;
79646;SDS011;69119;41.718;21.786;2024-03-25T12:09:39;6.47;;;2.50;;
79646;SDS011;69119;41.718;21.786;2024-03-25T12:12:25;7.82;;;2.63;;
79646;SDS011;69119;41.718;21.786;2024-03-25T12:17:17;5.53;;;1.83;;
79646;SDS011;69119;41.718;21.786;2024-03-25T12:19:45;5.97;;;2.38;;
79646;SDS011;69119;41.718;21.786;2024-03-25T12:24:37;6.53;;;2.28;;
79646;SDS011;69119;41.718;21.786;2024-03-25T12:27:04;4.72;;;1.65;;
79646;SDS011;69119;41.718;21.786;2024-03-25T12:29:30;4.60;;;1.52;;
79646;SDS011;69119;41.718;21.786;2024-03-25T12:31:56;5.40;;;1.65;;
79646;SDS011;69119;41.718;21.786;2024-03-25T12:34:26;6.10;;;2.67;;
79646;SDS011;69119;41.718;21.786;2024-03-25T12:37:00;5.10;;;1.98;;
79646;SDS011;69119;41.718;21.786;2024-03-25T12:39:26;6.70;;;2.03;;
79646;SDS011;69119;41.718;21.786;2024-03-25T12:41:53;5.50;;;2.03;;
79646;SDS011;69119;41.718;21.786;2024-03-25T12:44:19;6.47;;;2.03;;
79646;SDS011;69119;41.718;21.786;2024-03-25T12:46:46;6.75;;;2.42;;
79646;SDS011;69119;41.718;21.786;2024-03-25T12:49:12;4.35;;;1.95;;
79646;SDS011;69119;41.718;21.786;2024-03-25T12:51:38;6.07;;;2.00;;
79646;SDS011;69119;41.718;21.786;2024-03-25T12:54:04;5.82;;;1.85;;
79646;SDS011;69119;41.718;21.786;2024-03-25T12:56:30;6.72;;;2.35;;
79646;SDS011;69119;41.718;21.786;2024-03-25T12:58:56;5.53;;;2.38;;
79646;SDS011;69119;41.718;21.786;2024-03-25T13:01:22;5.78;;;2.83;;
79646;SDS011;69119;41.718;21.786;2024-03-25T13:03:48;8.27;;;3.30;;
79646;SDS011;69119;41.718;21.786;2024-03-25T13:06:14;7.22;;;2.65;;
79646;SDS011;69119;41.718;21.786;2024-03-25T13:08:40;8.70;;;2.95;;
79646;SDS011;69119;41.718;21.786;2024-03-25T13:11:06;6.93;;;2.35;;
79646;SDS011;69119;41.718;21.786;2024-03-25T13:13:32;5.05;;;1.80;;
79646;SDS011;69119;41.718;21.786;2024-03-25T13:15:58;5.47;;;2.47;;
79646;SDS011;69119;41.718;21.786;2024-03-25T13:18:24;7.38;;;2.08;;
79646;SDS011;69119;41.718;21.786;2024-03-25T13:20:50;5.47;;;1.98;;
79646;SDS011;69119;41.718;21.786;2024-03-25T13:23:16;3.25;;;1.00;;
79646;SDS011;69119;41.718;21.786;2024-03-25T13:25:42;4.63;;;1.92;;
79646;SDS011;69119;41.718;21.786;2024-03-25T13:28:08;5.53;;;1.60;;
79646;SDS011;69119;41.718;21.786;2024-03-25T13:30:34;4.43;;;1.38;;
79646;SDS011;69119;41.718;21.786;2024-03-25T13:33:00;5.20;;;2.13;;
79646;SDS011;69119;41.718;21.786;2024-03-25T13:35:26;4.00;;;1.25;;
79646;SDS011;69119;41.718;21.786;2024-03-25T13:37:52;5.55;;;1.48;;
79646;SDS011;69119;41.718;21.786;2024-03-25T13:40:18;6.80;;;2.20;;
79646;SDS011;69119;41.718;21.786;2024-03-25T13:42:44;4.03;;;1.83;;
79646;SDS011;69119;41.718;21.786;2024-03-25T13:45:11;5.35;;;2.20;;
79646;SDS011;69119;41.718;21.786;2024-03-25T13:47:38;7.97;;;2.80;;
79646;SDS011;69119;41.718;21.786;2024-03-25T13:50:04;5.65;;;2.17;;
79646;SDS011;69119;41.718;21.786;2024-03-25T13:52:33;5.00;;;1.65;;
79646;SDS011;69119;41.718;21.786;2024-03-25T13:54:59;5.18;;;2.38;;
79646;SDS011;69119;41.718;21.786;2024-03-25T13:57:25;5.20;;;1.92;;
79646;SDS011;69119;41.718;21.786;2024-03-25T13:59:51;5.43;;;1.90;;
79646;SDS011;69119;41.718;21.786;2024-03-25T14:02:17;5.00;;;1.77;;
79646;SDS011;69119;41.718;21.786;2024-03-25T14:04:43;5.10;;;1.88;;
79646;SDS011;69119;41.718;21.786;2024-03-25T14:07:10;4.68;;;1.83;;
79646;SDS011;69119;41.718;21.786;2024-03-25T14:09:36;5.95;;;2.33;;
79646;SDS011;69119;41.718;21.786;2024-03-25T14:12:02;6.03;;;2.45;;
79646;SDS011;69119;41.718;21.786;2024-03-25T14:14:29;6.88;;;2.13;;
79646;SDS011;69119;41.718;21.786;2024-03-25T14:16:55;5.70;;;2.35;;
79646;SDS011;69119;41.718;21.786;2024-03-25T14:19:21;8.35;;;3.13;;
79646;SDS011;69119;41.718;21.786;2024-03-25T14:21:50;6.45;;;2.13;;
79646;SDS011;69119;41.718;21.786;2024-03-25T14:24:16;5.03;;;1.85;;
79646;SDS011;69119;41.718;21.786;2024-03-25T14:26:42;6.00;;;2.03;;
79646;SDS011;69119;41.718;21.786;2024-03-25T14:29:08;5.65;;;2.22;;
79646;SDS011;69119;41.718;21.786;2024-03-25T14:31:34;5.90;;;2.38;;
79646;SDS011;69119;41.718;21.786;2024-03-25T14:34:00;5.93;;;2.78;;
79646;SDS011;69119;41.718;21.786;2024-03-25T14:36:26;6.03;;;2.15;;
79646;SDS011;69119;41.718;21.786;2024-03-25T14:38:52;5.63;;;2.20;;
79646;SDS011;69119;41.718;21.786;2024-03-25T14:41:19;5.20;;;1.90;;
79646;SDS011;69119;41.718;21.786;2024-03-25T14:43:46;6.03;;;1.83;;
79646;SDS011;69119;41.718;21.786;2024-03-25T14:46:13;3.65;;;1.40;;
79646;SDS011;69119;41.718;21.786;2024-03-25T14:48:39;5.03;;;2.53;;
79646;SDS011;69119;41.718;21.786;2024-03-25T14:51:05;3.80;;;1.23;;